Time;durP1;ratioP1;P1;durP2;ratioP2;P2;SDS_P1;SDS_P2;PMS_P1;PMS_P2;Temp;Humidity;BMP_temperature;BMP_pressure;BME280_temperature;BME280_humidity;BME280_pressure;Samples;Min_cycle;Max_cycle;Signal;HPM_P1;HPM_P2
2022/09/10 00:00:33;;;;;;;;;;;25.20;46.40;;;;;;1530220;76;721;-68
2022/09/10 00:02:35;;;;;;;;;;;25.10;46.40;;;;;;1525896;76;817;-68
2022/09/10 00:04:37;;;;;;;;;;;25.10;46.50;;;;;;1538158;76;1930;-67
2022/09/10 00:06:38;;;;;;;;;;;25.10;46.50;;;;;;1526573;76;1631;-67
2022/09/10 00:08:40;;;;;;;;;;;25.10;46.60;;;;;;1533267;76;815;-68
2022/09/10 00:10:43;;;;;;;;;;;25.10;46.60;;;;;;1541644;76;825;-68
2022/09/10 00:12:47;;;;;;;;;;;25.10;46.60;;;;;;1526849;76;818;-68
2022/09/10 00:14:50;;;;;;;;;;;25.10;46.60;;;;;;1524881;76;713;-68
2022/09/10 00:16:53;;;;;;;;;;;25.10;46.60;;;;;;1532266;76;1141;-67
2022/09/10 00:18:56;;;;;;;;;;;25.10;46.60;;;;;;1537343;76;768;-67
2022/09/10 00:20:58;;;;;;;;;;;25.00;46.60;;;;;;1535655;76;1678;-67
2022/09/10 00:23:01;;;;;;;;;;;25.10;46.60;;;;;;1532633;76;699;-68
2022/09/10 00:25:03;;;;;;;;;;;25.20;46.60;;;;;;1524560;76;1913;-67
2022/09/10 00:27:05;;;;;;;;;;;25.10;46.60;;;;;;1538525;76;1113;-67
2022/09/10 00:29:08;;;;;;;;;;;25.10;46.60;;;;;;1534150;76;790;-68
2022/09/10 00:31:10;;;;;;;;;;;25.10;46.70;;;;;;1537064;76;816;-68
2022/09/10 00:33:12;;;;;;;;;;;25.10;46.70;;;;;;1538311;76;771;-67
2022/09/10 00:35:14;;;;;;;;;;;25.10;46.50;;;;;;1519927;76;1724;-66
2022/09/10 00:37:17;;;;;;;;;;;25.10;46.40;;;;;;1524041;76;797;-67
2022/09/10 00:39:19;;;;;;;;;;;25.10;46.30;;;;;;1542298;76;797;-68
2022/09/10 00:41:21;;;;;;;;;;;25.10;46.30;;;;;;1536333;76;755;-67
2022/09/10 00:43:23;;;;;;;;;;;25.10;46.40;;;;;;1535486;76;795;-68
2022/09/10 00:45:26;;;;;;;;;;;25.10;46.40;;;;;;1541321;76;1935;-68
2022/09/10 00:47:29;;;;;;;;;;;25.10;46.50;;;;;;1534129;76;745;-68
2022/09/10 00:49:33;;;;;;;;;;;25.10;46.50;;;;;;1532691;76;2241;-69
2022/09/10 00:51:34;;;;;;;;;;;25.10;46.40;;;;;;1533211;76;750;-67
2022/09/10 00:53:36;;;;;;;;;;;25.10;46.40;;;;;;1534494;76;783;-67
2022/09/10 00:55:39;;;;;;;;;;;25.10;46.40;;;;;;1529778;76;1138;-67
2022/09/10 00:57:40;;;;;;;;;;;25.00;46.50;;;;;;1540987;76;799;-67
2022/09/10 00:59:43;;;;;;;;;;;25.00;46.50;;;;;;1527968;76;764;-67
2022/09/10 01:01:45;;;;;;;;;;;25.10;46.40;;;;;;1531147;76;1527;-68
2022/09/10 01:03:48;;;;;;;;;;;25.10;46.50;;;;;;1547272;76;793;-67
2022/09/10 01:05:50;;;;;;;;;;;25.00;46.20;;;;;;1536439;76;1925;-67
2022/09/10 01:07:52;;;;;;;;;;;25.00;46.10;;;;;;1535162;76;785;-67
2022/09/10 01:09:55;;;;;;;;;;;25.00;46.20;;;;;;1528086;76;724;-66
2022/09/10 01:12:02;;;;;;;;;;;25.00;46.30;;;;;;1536253;76;726;-67
2022/09/10 01:14:22;;;;;;;;;;;25.00;46.20;;;;;;1533060;76;1964;-67
2022/09/10 01:16:29;;;;;;;;;;;25.00;46.20;;;;;;1529755;76;1571;-65
2022/09/10 01:18:49;;;;;;;;;;;25.00;46.30;;;;;;1537519;76;846;-67
2022/09/10 01:21:10;;;;;;;;;;;25.00;46.30;;;;;;1529149;76;855;-67
2022/09/10 01:23:13;;;;;;;;;;;25.00;46.30;;;;;;1533990;76;778;-69
2022/09/10 01:25:23;;;;;;;;;;;25.00;46.30;;;;;;1537327;76;1957;-66
2022/09/10 01:27:38;;;;;;;;;;;25.00;46.30;;;;;;1537770;76;721;-67
2022/09/10 01:29:54;;;;;;;;;;;25.00;46.10;;;;;;1523145;76;1538;-67
2022/09/10 01:32:00;;;;;;;;;;;25.00;46.10;;;;;;1544121;76;714;-67
2022/09/10 01:34:03;;;;;;;;;;;25.00;46.10;;;;;;1530706;76;722;-66
2022/09/10 01:36:11;;;;;;;;;;;25.00;46.20;;;;;;1515156;76;1724;-68
2022/09/10 01:38:26;;;;;;;;;;;25.00;46.10;;;;;;1537914;76;768;-67
2022/09/10 01:40:28;;;;;;;;;;;25.00;46.30;;;;;;1542730;76;820;-67
2022/09/10 01:42:31;;;;;;;;;;;25.10;46.10;;;;;;1532572;76;729;-67
2022/09/10 01:44:46;;;;;;;;;;;25.00;46.00;;;;;;1541026;76;1543;-67
2022/09/10 01:46:50;;;;;;;;;;;25.00;45.80;;;;;;1531430;76;1139;-68
2022/09/10 01:48:54;;;;;;;;;;;25.00;45.70;;;;;;1549044;76;790;-68
2022/09/10 01:50:57;;;;;;;;;;;25.00;45.60;;;;;;1536608;76;760;-67
2022/09/10 01:53:01;;;;;;;;;;;25.00;45.60;;;;;;1517480;76;1682;-67
2022/09/10 01:55:20;;;;;;;;;;;25.00;45.60;;;;;;1529272;76;700;-67
2022/09/10 01:57:26;;;;;;;;;;;25.00;45.60;;;;;;1529411;76;777;-65
2022/09/10 01:59:29;;;;;;;;;;;25.00;45.60;;;;;;1533045;76;1751;-66
2022/09/10 02:01:39;;;;;;;;;;;25.00;45.50;;;;;;1536599;76;738;-68
2022/09/10 02:03:41;;;;;;;;;;;25.00;45.40;;;;;;1535874;76;1689;-67
2022/09/10 02:05:44;;;;;;;;;;;25.00;45.30;;;;;;1529757;77;1944;-68
2022/09/10 02:07:46;;;;;;;;;;;25.00;45.30;;;;;;1526234;76;826;-67
2022/09/10 02:09:49;;;;;;;;;;;25.10;45.20;;;;;;1522643;76;711;-68
2022/09/10 02:11:54;;;;;;;;;;;25.00;45.10;;;;;;1537364;76;1541;-67
2022/09/10 02:13:57;;;;;;;;;;;25.00;45.00;;;;;;1540615;76;775;-68
2022/09/10 02:15:59;;;;;;;;;;;25.00;45.00;;;;;;1527026;76;1157;-67
2022/09/10 02:18:00;;;;;;;;;;;25.00;45.00;;;;;;1528529;76;734;-67
2022/09/10 02:20:03;;;;;;;;;;;25.00;44.90;;;;;;1547649;76;743;-69
2022/09/10 02:22:05;;;;;;;;;;;25.00;44.90;;;;;;1540407;76;801;-67
2022/09/10 02:24:09;;;;;;;;;;;25.00;44.90;;;;;;1543434;76;778;-67
2022/09/10 02:26:13;;;;;;;;;;;25.00;44.80;;;;;;1539464;76;1940;-67
2022/09/10 02:28:15;;;;;;;;;;;25.00;44.90;;;;;;1537790;76;718;-67
2022/09/10 02:30:19;;;;;;;;;;;25.00;44.80;;;;;;1534475;76;788;-67
2022/09/10 02:32:20;;;;;;;;;;;25.00;45.20;;;;;;1520713;76;1406;-67
2022/09/10 02:34:23;;;;;;;;;;;25.00;45.30;;;;;;1524698;76;736;-67
2022/09/10 02:36:25;;;;;;;;;;;25.00;45.20;;;;;;1525362;76;1127;-67
2022/09/10 02:38:28;;;;;;;;;;;25.10;45.30;;;;;;1539516;76;896;-67
2022/09/10 02:40:30;;;;;;;;;;;25.00;45.20;;;;;;1536974;76;1583;-67
2022/09/10 02:42:32;;;;;;;;;;;25.00;45.40;;;;;;1538384;76;811;-67
2022/09/10 02:44:34;;;;;;;;;;;25.00;45.50;;;;;;1533048;76;793;-68
2022/09/10 02:46:37;;;;;;;;;;;25.00;45.60;;;;;;1545904;76;1947;-67
2022/09/10 02:48:41;;;;;;;;;;;25.00;45.70;;;;;;1551241;76;694;-67
2022/09/10 02:50:45;;;;;;;;;;;25.00;45.70;;;;;;1527393;76;749;-68
2022/09/10 02:52:47;;;;;;;;;;;25.00;45.80;;;;;;1537348;76;693;-67
2022/09/10 02:54:49;;;;;;;;;;;25.00;45.60;;;;;;1536387;76;1561;-67
2022/09/10 02:56:52;;;;;;;;;;;24.90;45.40;;;;;;1539547;76;1125;-67
2022/09/10 02:58:54;;;;;;;;;;;25.00;45.50;;;;;;1525351;76;736;-67
2022/09/10 03:00:57;;;;;;;;;;;25.00;45.40;;;;;;1529814;76;588;-67
2022/09/10 03:02:59;;;;;;;;;;;25.10;45.50;;;;;;1538290;76;1930;-67
2022/09/10 03:05:03;;;;;;;;;;;25.00;45.30;;;;;;1536247;76;829;-68
2022/09/10 03:07:05;;;;;;;;;;;25.10;45.50;;;;;;1528502;76;1964;-67
2022/09/10 03:09:07;;;;;;;;;;;25.10;45.20;;;;;;1533724;76;1542;-68
2022/09/10 03:11:13;;;;;;;;;;;25.00;45.20;;;;;;1541522;76;694;-68
2022/09/10 03:13:12;;;;;;;;;;;25.10;45.30;;;;;;1521076;76;1659;-67
2022/09/10 03:15:14;;;;;;;;;;;25.10;45.20;;;;;;1537332;76;810;-67
2022/09/10 03:17:16;;;;;;;;;;;25.10;45.30;;;;;;1536328;76;805;-69
2022/09/10 03:19:20;;;;;;;;;;;25.20;45.10;;;;;;1533306;76;725;-67
2022/09/10 03:21:23;;;;;;;;;;;25.30;44.90;;;;;;1533060;76;768;-68
2022/09/10 03:23:27;;;;;;;;;;;25.30;44.80;;;;;;1534404;76;1568;-66
2022/09/10 03:25:29;;;;;;;;;;;25.30;44.60;;;;;;1537788;76;1940;-68
2022/09/10 03:27:30;;;;;;;;;;;25.40;44.50;;;;;;1529649;76;763;-68
2022/09/10 03:29:32;;;;;;;;;;;25.30;44.60;;;;;;1534738;76;771;-68
2022/09/10 03:31:35;;;;;;;;;;;25.30;44.40;;;;;;1536818;76;769;-67
2022/09/10 03:33:37;;;;;;;;;;;25.20;44.60;;;;;;1535522;76;805;-68
2022/09/10 03:35:39;;;;;;;;;;;25.20;44.60;;;;;;1532710;75;1123;-68
2022/09/10 03:37:41;;;;;;;;;;;25.20;44.40;;;;;;1540811;76;1564;-66
2022/09/10 03:39:43;;;;;;;;;;;25.20;44.40;;;;;;1538037;76;761;-67
2022/09/10 03:41:45;;;;;;;;;;;25.20;44.50;;;;;;1530177;76;812;-67
2022/09/10 03:43:48;;;;;;;;;;;25.20;44.70;;;;;;1529178;76;733;-66
2022/09/10 03:45:50;;;;;;;;;;;25.20;44.50;;;;;;1544292;75;1950;-67
2022/09/10 03:47:52;;;;;;;;;;;25.30;44.40;;;;;;1537183;76;743;-67
2022/09/10 03:49:55;;;;;;;;;;;25.10;44.50;;;;;;1542134;76;776;-67
2022/09/10 03:51:56;;;;;;;;;;;25.10;44.50;;;;;;1539253;76;1576;-66
2022/09/10 03:53:58;;;;;;;;;;;25.10;44.50;;;;;;1540601;76;714;-69
2022/09/10 03:56:00;;;;;;;;;;;25.10;44.70;;;;;;1535271;76;1143;-65
2022/09/10 03:58:02;;;;;;;;;;;25.10;44.60;;;;;;1538518;76;812;-67
2022/09/10 04:00:05;;;;;;;;;;;25.10;44.80;;;;;;1542539;76;888;-67
2022/09/10 04:02:08;;;;;;;;;;;25.10;44.50;;;;;;1535205;76;793;-69
2022/09/10 04:04:10;;;;;;;;;;;25.10;44.60;;;;;;1543364;76;867;-67
2022/09/10 04:06:12;;;;;;;;;;;25.10;44.70;;;;;;1543010;76;1930;-67
2022/09/10 04:08:13;;;;;;;;;;;25.10;44.70;;;;;;1545379;76;712;-68
2022/09/10 04:10:15;;;;;;;;;;;25.10;44.90;;;;;;1539472;76;791;-69
2022/09/10 04:12:17;;;;;;;;;;;25.10;44.90;;;;;;1544082;76;752;-68
2022/09/10 04:14:19;;;;;;;;;;;25.10;45.00;;;;;;1542361;76;794;-67
2022/09/10 04:16:22;;;;;;;;;;;25.10;45.20;;;;;;1541094;76;1149;-68
2022/09/10 04:18:26;;;;;;;;;;;25.00;45.20;;;;;;1537018;76;784;-67
2022/09/10 04:20:27;;;;;;;;;;;25.00;45.20;;;;;;1529765;76;1654;-67
2022/09/10 04:22:29;;;;;;;;;;;25.00;45.00;;;;;;1534268;76;718;-68
2022/09/10 04:24:31;;;;;;;;;;;25.00;45.30;;;;;;1543331;76;740;-68
2022/09/10 04:26:33;;;;;;;;;;;25.00;45.20;;;;;;1543404;74;1945;-68
2022/09/10 04:28:35;;;;;;;;;;;25.00;45.30;;;;;;1541563;76;717;-68
2022/09/10 04:30:37;;;;;;;;;;;25.00;45.50;;;;;;1543859;76;726;-67
2022/09/10 04:32:39;;;;;;;;;;;25.00;45.50;;;;;;1539332;76;1559;-67
2022/09/10 04:34:41;;;;;;;;;;;25.00;45.50;;;;;;1543476;76;745;-67
2022/09/10 04:36:43;;;;;;;;;;;25.00;45.40;;;;;;1535938;76;1116;-67
2022/09/10 04:38:45;;;;;;;;;;;25.20;45.50;;;;;;1502130;77;864;-67
2022/09/10 04:40:47;;;;;;;;;;;25.00;45.60;;;;;;1535939;76;818;-66
2022/09/10 04:42:49;;;;;;;;;;;25.00;45.60;;;;;;1530179;76;757;-67
2022/09/10 04:44:50;;;;;;;;;;;25.00;45.60;;;;;;1536119;76;704;-65
2022/09/10 04:46:52;;;;;;;;;;;25.10;45.60;;;;;;1536200;75;1928;-68
2022/09/10 04:48:54;;;;;;;;;;;25.00;45.60;;;;;;1542158;76;855;-67
2022/09/10 04:50:56;;;;;;;;;;;25.00;45.50;;;;;;1538789;76;737;-67
2022/09/10 04:52:59;;;;;;;;;;;25.00;45.50;;;;;;1535420;76;731;-67
2022/09/10 04:55:01;;;;;;;;;;;25.00;45.40;;;;;;1530016;76;705;-67
2022/09/10 04:57:03;;;;;;;;;;;25.00;45.60;;;;;;1560463;73;3137;-66
2022/09/10 04:59:05;;;;;;;;;;;25.00;45.60;;;;;;1568268;74;733;-68
2022/09/10 05:01:07;;;;;;;;;;;25.00;45.60;;;;;;1567293;74;1499;-66
2022/09/10 05:03:09;;;;;;;;;;;25.00;45.60;;;;;;1564856;74;802;-66
2022/09/10 05:05:10;;;;;;;;;;;25.00;45.20;;;;;;1568200;75;767;-66
2022/09/10 05:07:12;;;;;;;;;;;25.00;45.30;;;;;;1561022;74;1955;-66
2022/09/10 05:09:14;;;;;;;;;;;25.10;45.30;;;;;;1562242;76;728;-66
2022/09/10 05:11:18;;;;;;;;;;;25.00;45.40;;;;;;1549359;75;728;-67
2022/09/10 05:13:20;;;;;;;;;;;25.00;45.10;;;;;;1559484;75;1467;-66
2022/09/10 05:15:21;;;;;;;;;;;25.00;45.20;;;;;;1561595;76;1537;-65
2022/09/10 05:17:23;;;;;;;;;;;25.00;45.20;;;;;;1560026;75;1123;-66
2022/09/10 05:19:25;;;;;;;;;;;25.00;45.10;;;;;;1557525;76;809;-67
2022/09/10 05:21:28;;;;;;;;;;;25.00;44.90;;;;;;1549128;75;756;-66
2022/09/10 05:23:30;;;;;;;;;;;25.00;45.00;;;;;;1547710;75;759;-66
2022/09/10 05:25:33;;;;;;;;;;;25.00;44.90;;;;;;1547808;76;672;-66
2022/09/10 05:27:35;;;;;;;;;;;25.00;44.90;;;;;;1569017;75;1927;-67
2022/09/10 05:29:37;;;;;;;;;;;25.00;44.80;;;;;;1549310;75;1383;-66
2022/09/10 05:31:39;;;;;;;;;;;25.00;44.60;;;;;;1545148;75;777;-65
2022/09/10 05:33:41;;;;;;;;;;;25.00;44.70;;;;;;1546428;76;649;-68
2022/09/10 05:35:43;;;;;;;;;;;25.00;44.70;;;;;;1547393;75;1145;-66
2022/09/10 05:37:45;;;;;;;;;;;25.00;44.80;;;;;;1547606;75;746;-66
2022/09/10 05:39:47;;;;;;;;;;;25.00;44.80;;;;;;1550820;75;708;-66
2022/09/10 05:41:49;;;;;;;;;;;25.00;44.80;;;;;;1558369;75;732;-66
2022/09/10 05:43:51;;;;;;;;;;;25.10;44.60;;;;;;1548222;76;1647;-67
2022/09/10 05:45:53;;;;;;;;;;;25.00;45.00;;;;;;1556433;76;1156;-68
2022/09/10 05:47:55;;;;;;;;;;;25.00;45.10;;;;;;1557583;76;1943;-68
2022/09/10 05:49:56;;;;;;;;;;;25.00;44.80;;;;;;1558195;75;761;-69
2022/09/10 05:51:58;;;;;;;;;;;25.00;44.80;;;;;;1555020;76;749;-69
2022/09/10 05:54:00;;;;;;;;;;;25.00;45.00;;;;;;1558831;76;739;-68
2022/09/10 05:56:04;;;;;;;;;;;24.90;45.00;;;;;;1558879;76;1161;-69
2022/09/10 05:58:06;;;;;;;;;;;25.00;45.00;;;;;;1561802;75;1559;-69
2022/09/10 06:00:08;;;;;;;;;;;24.90;45.10;;;;;;1562461;74;750;-69
2022/09/10 06:02:11;;;;;;;;;;;24.80;45.00;;;;;;1561171;74;627;-69
2022/09/10 06:04:13;;;;;;;;;;;24.80;45.10;;;;;;1563672;74;1726;-69
2022/09/10 06:06:15;;;;;;;;;;;24.80;45.20;;;;;;1562323;75;1198;-68
2022/09/10 06:08:17;;;;;;;;;;;24.80;45.20;;;;;;1562311;75;1920;-68
2022/09/10 06:10:19;;;;;;;;;;;24.80;45.20;;;;;;1560933;74;745;-69
2022/09/10 06:12:21;;;;;;;;;;;24.90;45.20;;;;;;1563527;74;1303;-68
2022/09/10 06:14:23;;;;;;;;;;;24.90;45.20;;;;;;1561986;74;840;-69
2022/09/10 06:16:25;;;;;;;;;;;24.90;45.30;;;;;;1563363;74;1154;-69
2022/09/10 06:18:27;;;;;;;;;;;24.90;45.30;;;;;;1562153;74;751;-68
2022/09/10 06:20:29;;;;;;;;;;;24.90;45.30;;;;;;1561974;74;802;-68
2022/09/10 06:22:31;;;;;;;;;;;24.90;45.40;;;;;;1561259;74;836;-69
2022/09/10 06:24:33;;;;;;;;;;;24.90;45.30;;;;;;1562451;75;783;-68
2022/09/10 06:26:35;;;;;;;;;;;24.90;45.30;;;;;;1561893;74;1930;-68
2022/09/10 06:28:37;;;;;;;;;;;25.00;45.50;;;;;;1561566;76;730;-68
2022/09/10 06:30:39;;;;;;;;;;;25.00;45.40;;;;;;1559604;74;903;-69
2022/09/10 06:32:41;;;;;;;;;;;25.00;45.40;;;;;;1560276;76;742;-66
2022/09/10 06:34:43;;;;;;;;;;;25.00;45.50;;;;;;1561017;74;729;-69
2022/09/10 06:36:48;;;;;;;;;;;25.00;45.60;;;;;;1560617;74;1119;-70
2022/09/10 06:38:50;;;;;;;;;;;25.10;45.50;;;;;;1560387;74;796;-65
2022/09/10 06:40:53;;;;;;;;;;;25.10;45.70;;;;;;1555211;74;1675;-66
2022/09/10 06:42:55;;;;;;;;;;;25.10;45.50;;;;;;1555641;74;2066;-67
2022/09/10 06:44:59;;;;;;;;;;;25.00;45.40;;;;;;1561421;74;716;-64
2022/09/10 06:47:01;;;;;;;;;;;25.00;45.30;;;;;;1546619;75;1946;-66
2022/09/10 06:49:03;;;;;;;;;;;25.00;45.30;;;;;;1570686;74;762;-65
2022/09/10 06:51:06;;;;;;;;;;;24.90;45.30;;;;;;1564564;74;714;-65
2022/09/10 06:53:10;;;;;;;;;;;24.80;45.30;;;;;;1571675;74;1421;-66
2022/09/10 06:55:12;;;;;;;;;;;24.80;45.30;;;;;;1557270;74;661;-63
2022/09/10 06:57:14;;;;;;;;;;;24.80;45.30;;;;;;1577398;75;1121;-64
2022/09/10 06:59:17;;;;;;;;;;;24.80;45.40;;;;;;1559671;75;741;-64
2022/09/10 07:01:20;;;;;;;;;;;24.80;45.40;;;;;;1568048;75;742;-66
2022/09/10 07:03:22;;;;;;;;;;;24.80;45.30;;;;;;1552369;74;721;-64
2022/09/10 07:05:24;;;;;;;;;;;24.70;45.40;;;;;;1554646;74;712;-65
2022/09/10 07:07:27;;;;;;;;;;;24.70;45.40;;;;;;1555015;75;1938;-65
2022/09/10 07:09:29;;;;;;;;;;;24.70;45.40;;;;;;1553883;74;749;-64
2022/09/10 07:11:31;;;;;;;;;;;24.60;45.20;;;;;;1570096;74;802;-65
2022/09/10 07:13:33;;;;;;;;;;;24.70;45.40;;;;;;1559174;74;714;-65
2022/09/10 07:15:35;;;;;;;;;;;24.70;45.40;;;;;;1556168;74;740;-65
2022/09/10 07:17:37;;;;;;;;;;;24.60;45.30;;;;;;1550090;75;812;-63
2022/09/10 07:19:39;;;;;;;;;;;24.70;45.40;;;;;;1566933;74;708;-65
2022/09/10 07:21:41;;;;;;;;;;;24.60;45.40;;;;;;1567813;74;1518;-65
2022/09/10 07:23:50;;;;;;;;;;;24.60;45.40;;;;;;1559882;74;720;-65
2022/09/10 07:25:52;;;;;;;;;;;24.70;45.60;;;;;;1568695;74;1131;-65
2022/09/10 07:27:54;;;;;;;;;;;24.60;45.50;;;;;;1562980;75;1882;-65
2022/09/10 07:29:56;;;;;;;;;;;24.60;45.60;;;;;;1551890;74;757;-65
2022/09/10 07:31:58;;;;;;;;;;;24.60;45.50;;;;;;1551052;75;801;-66
2022/09/10 07:34:01;;;;;;;;;;;24.60;45.60;;;;;;1561983;74;684;-64
2022/09/10 07:36:03;;;;;;;;;;;24.50;45.60;;;;;;1562179;74;1621;-65
2022/09/10 07:38:05;;;;;;;;;;;24.60;45.60;;;;;;1567046;75;749;-65
2022/09/10 07:40:08;;;;;;;;;;;24.60;45.70;;;;;;1569781;74;776;-67
2022/09/10 07:42:10;;;;;;;;;;;24.60;45.70;;;;;;1570898;74;652;-66
2022/09/10 07:44:12;;;;;;;;;;;24.50;45.70;;;;;;1562696;74;738;-64
2022/09/10 07:46:18;;;;;;;;;;;24.50;45.70;;;;;;1562941;74;1155;-65
2022/09/10 07:48:19;;;;;;;;;;;24.50;45.60;;;;;;1562444;74;1941;-65
2022/09/10 07:50:21;;;;;;;;;;;24.60;45.60;;;;;;1563256;74;1632;-66
2022/09/10 07:52:23;;;;;;;;;;;24.60;45.60;;;;;;1566844;74;795;-65
2022/09/10 07:54:27;;;;;;;;;;;24.60;45.70;;;;;;1563251;74;715;-65
2022/09/10 07:56:30;;;;;;;;;;;24.60;45.70;;;;;;1566065;74;1697;-65
2022/09/10 07:58:32;;;;;;;;;;;24.60;45.70;;;;;;1553398;76;1455;-66
2022/09/10 08:00:34;;;;;;;;;;;24.60;45.70;;;;;;1570979;74;730;-66
2022/09/10 08:02:36;;;;;;;;;;;24.50;45.70;;;;;;1559614;74;720;-66
2022/09/10 08:04:38;;;;;;;;;;;24.50;45.70;;;;;;1552196;75;1583;-66
2022/09/10 08:06:40;;;;;;;;;;;24.50;45.70;;;;;;1566400;74;1165;-65
2022/09/10 08:08:42;;;;;;;;;;;24.50;45.70;;;;;;1560899;74;1911;-66
2022/09/10 08:10:44;;;;;;;;;;;24.50;45.70;;;;;;1558129;74;777;-65
2022/09/10 08:12:46;;;;;;;;;;;24.50;45.70;;;;;;1562533;74;677;-65
2022/09/10 08:14:48;;;;;;;;;;;24.50;45.70;;;;;;1508606;77;825;-66
2022/09/10 08:16:50;;;;;;;;;;;24.50;45.70;;;;;;1522345;76;1168;-65
2022/09/10 08:18:55;;;;;;;;;;;24.50;45.60;;;;;;1532279;76;1534;-65
2022/09/10 08:20:57;;;;;;;;;;;24.50;45.70;;;;;;1523477;76;782;-66
2022/09/10 08:22:59;;;;;;;;;;;24.50;45.70;;;;;;1529861;76;820;-65
2022/09/10 08:25:01;;;;;;;;;;;24.50;45.70;;;;;;1532264;76;794;-65
2022/09/10 08:27:03;;;;;;;;;;;24.50;45.70;;;;;;1529673;76;1098;-66
2022/09/10 08:29:05;;;;;;;;;;;24.50;45.70;;;;;;1520132;76;1929;-65
2022/09/10 08:31:08;;;;;;;;;;;24.50;45.70;;;;;;1516301;76;734;-65
2022/09/10 08:33:11;;;;;;;;;;;24.50;45.70;;;;;;1526530;75;1605;-65
2022/09/10 08:35:13;;;;;;;;;;;24.50;45.60;;;;;;1531881;76;781;-68
2022/09/10 08:37:15;;;;;;;;;;;24.50;45.60;;;;;;1524184;76;1149;-65
2022/09/10 08:39:17;;;;;;;;;;;24.50;45.60;;;;;;1531145;76;788;-65
2022/09/10 08:41:20;;;;;;;;;;;24.50;45.60;;;;;;1528092;76;794;-68
2022/09/10 08:43:27;;;;;;;;;;;24.50;45.60;;;;;;1533774;76;725;-66
2022/09/10 08:45:29;;;;;;;;;;;24.50;45.50;;;;;;1519181;76;1879;-65
2022/09/10 08:47:33;;;;;;;;;;;24.50;45.50;;;;;;1525097;76;1937;-65
2022/09/10 08:49:45;;;;;;;;;;;24.40;45.50;;;;;;1528829;76;682;-66
2022/09/10 08:51:51;;;;;;;;;;;24.50;45.50;;;;;;1539319;76;794;-65
2022/09/10 08:54:01;;;;;;;;;;;24.50;45.60;;;;;;1528060;76;790;-65
2022/09/10 08:56:05;;;;;;;;;;;24.50;45.50;;;;;;1532088;76;1842;-67
2022/09/10 08:58:11;;;;;;;;;;;24.50;45.50;;;;;;1513720;77;766;-65
2022/09/10 09:00:15;;;;;;;;;;;24.50;45.50;;;;;;1530855;76;1559;-65
2022/09/10 09:02:37;;;;;;;;;;;24.40;45.50;;;;;;1529211;76;754;-65
2022/09/10 09:04:46;;;;;;;;;;;24.50;45.60;;;;;;1532488;76;805;-66
2022/09/10 09:06:50;;;;;;;;;;;24.50;45.60;;;;;;1530899;76;1184;-66
2022/09/10 09:08:51;;;;;;;;;;;24.40;45.50;;;;;;1528237;76;1928;-64
2022/09/10 09:11:10;;;;;;;;;;;24.50;45.60;;;;;;1528910;76;757;-65
2022/09/10 09:13:25;;;;;;;;;;;24.40;45.50;;;;;;1527494;76;1715;-65
2022/09/10 09:15:37;;;;;;;;;;;24.40;45.50;;;;;;1530491;76;1525;-66
2022/09/10 09:17:59;;;;;;;;;;;24.40;45.50;;;;;;1527833;76;1795;-66
2022/09/10 09:20:17;;;;;;;;;;;24.40;45.50;;;;;;1526819;76;666;-67
2022/09/10 09:22:35;;;;;;;;;;;24.40;45.50;;;;;;1527736;76;683;-66
2022/09/10 09:24:42;;;;;;;;;;;24.40;45.50;;;;;;1533303;76;670;-66
2022/09/10 09:26:46;;;;;;;;;;;24.50;45.50;;;;;;1527455;76;1973;-67
2022/09/10 09:28:55;;;;;;;;;;;24.50;45.50;;;;;;1520848;76;1912;-65
2022/09/10 09:30:58;;;;;;;;;;;24.40;45.40;;;;;;1545664;76;2002;-65
2022/09/10 09:33:04;;;;;;;;;;;24.40;45.40;;;;;;1525629;76;796;-64
2022/09/10 09:35:11;;;;;;;;;;;24.40;45.40;;;;;;1535099;76;801;-65
2022/09/10 09:37:17;;;;;;;;;;;24.40;45.50;;;;;;1528918;76;1904;-66
2022/09/10 09:39:38;;;;;;;;;;;24.40;45.40;;;;;;1527207;76;1816;-65
2022/09/10 09:41:44;;;;;;;;;;;24.40;45.30;;;;;;1531491;76;785;-65
2022/09/10 09:43:51;;;;;;;;;;;24.40;45.30;;;;;;1498284;77;1746;-63
2022/09/10 09:45:53;;;;;;;;;;;24.40;45.30;;;;;;1529590;76;1173;-64
2022/09/10 09:47:55;;;;;;;;;;;24.40;45.30;;;;;;1529190;76;1914;-65
2022/09/10 09:49:57;;;;;;;;;;;24.40;45.30;;;;;;1502583;77;787;-65
2022/09/10 09:51:59;;;;;;;;;;;24.40;45.30;;;;;;1534107;76;738;-65
2022/09/10 09:54:02;;;;;;;;;;;24.30;45.30;;;;;;1521314;76;597;-65
2022/09/10 09:56:06;;;;;;;;;;;24.30;45.30;;;;;;1536513;76;2026;-65
2022/09/10 09:58:29;;;;;;;;;;;24.40;45.30;;;;;;1536890;76;714;-65
2022/09/10 10:00:36;;;;;;;;;;;24.40;45.30;;;;;;1529805;76;1333;-64
2022/09/10 10:02:37;;;;;;;;;;;24.40;45.20;;;;;;1521413;77;880;-64
2022/09/10 10:04:40;;;;;;;;;;;24.30;45.20;;;;;;1523542;75;765;-66
2022/09/10 10:06:46;;;;;;;;;;;24.50;45.40;;;;;;1526844;75;1156;-64
2022/09/10 10:08:49;;;;;;;;;;;24.30;45.20;;;;;;1493807;77;1904;-64
2022/09/10 10:10:52;;;;;;;;;;;24.30;45.20;;;;;;1500109;77;1839;-66
2022/09/10 10:12:54;;;;;;;;;;;24.30;45.20;;;;;;1500955;77;813;-65
2022/09/10 10:14:56;;;;;;;;;;;24.40;45.20;;;;;;1510545;77;888;-71
2022/09/10 10:16:59;;;;;;;;;;;24.40;45.20;;;;;;1502954;77;1117;-67
2022/09/10 10:19:01;;;;;;;;;;;24.40;45.30;;;;;;1502647;77;720;-68
2022/09/10 10:21:23;;;;;;;;;;;24.50;45.40;;;;;;1531094;75;820;-67
2022/09/10 10:23:38;;;;;;;;;;;24.50;45.30;;;;;;1524834;76;1481;-67
2022/09/10 10:25:40;;;;;;;;;;;24.60;45.20;;;;;;1501898;77;1587;-66
2022/09/10 10:27:42;;;;;;;;;;;24.60;45.00;;;;;;1502853;77;1731;-67
2022/09/10 10:29:54;;;;;;;;;;;24.60;44.90;;;;;;1514120;77;1926;-67
2022/09/10 10:31:56;;;;;;;;;;;24.50;44.90;;;;;;1525012;76;715;-67
2022/09/10 10:34:16;;;;;;;;;;;24.50;44.80;;;;;;1509440;77;829;-67
2022/09/10 10:36:17;;;;;;;;;;;24.50;44.90;;;;;;1497663;77;1259;-68
2022/09/10 10:38:36;;;;;;;;;;;24.50;44.90;;;;;;1526001;76;2234;-67
2022/09/10 10:40:42;;;;;;;;;;;24.50;44.90;;;;;;1525048;76;728;-70
2022/09/10 10:42:47;;;;;;;;;;;24.50;44.80;;;;;;1502340;77;1442;-66
2022/09/10 10:44:51;;;;;;;;;;;24.40;44.70;;;;;;1503925;77;858;-67
2022/09/10 10:46:54;;;;;;;;;;;24.40;44.70;;;;;;1527649;76;1144;-67
2022/09/10 10:49:07;;;;;;;;;;;24.40;44.70;;;;;;1529679;76;1935;-67
2022/09/10 10:51:19;;;;;;;;;;;24.40;44.70;;;;;;1431011;81;1158;-67
2022/09/10 10:53:25;;;;;;;;;;;24.40;44.70;;;;;;1491300;77;1632;-67
2022/09/10 10:55:37;;;;;;;;;;;24.40;44.70;;;;;;1499758;77;1694;-67
2022/09/10 10:57:42;;;;;;;;;;;24.30;44.70;;;;;;1509775;75;2068;-67
2022/09/10 10:59:45;;;;;;;;;;;24.40;44.60;;;;;;1507830;77;899;-66
2022/09/10 11:01:48;;;;;;;;;;;24.30;44.60;;;;;;1533265;76;1690;-66
2022/09/10 11:03:54;;;;;;;;;;;24.40;44.60;;;;;;1498949;78;735;-65
2022/09/10 11:06:16;;;;;;;;;;;24.30;44.60;;;;;;1503225;76;704;-65
2022/09/10 11:08:22;;;;;;;;;;;24.40;44.50;;;;;;1475495;79;1928;-66
2022/09/10 11:10:38;;;;;;;;;;;24.40;44.50;;;;;;1477868;80;1082;-66
2022/09/10 11:12:44;;;;;;;;;;;24.40;44.40;;;;;;1503525;77;750;-66
2022/09/10 11:14:54;;;;;;;;;;;24.30;44.40;;;;;;1477587;78;647;-70
2022/09/10 11:16:58;;;;;;;;;;;24.40;44.50;;;;;;1480901;79;1221;-67
2022/09/10 11:19:01;;;;;;;;;;;24.30;44.50;;;;;;1508319;77;743;-65
2022/09/10 11:21:21;;;;;;;;;;;24.30;44.40;;;;;;1498771;77;1511;-67
2022/09/10 11:23:37;;;;;;;;;;;24.40;44.40;;;;;;1480174;78;736;-65
2022/09/10 11:25:41;;;;;;;;;;;24.30;44.40;;;;;;1504024;78;706;-66
2022/09/10 11:27:45;;;;;;;;;;;24.30;44.40;;;;;;1495031;78;1679;-64
2022/09/10 11:29:54;;;;;;;;;;;24.30;44.30;;;;;;1491478;78;1927;-63
2022/09/10 11:32:14;;;;;;;;;;;24.30;44.40;;;;;;1470655;80;745;-65
2022/09/10 11:34:21;;;;;;;;;;;24.40;44.30;;;;;;1476604;79;914;-65
2022/09/10 11:36:24;;;;;;;;;;;24.30;44.40;;;;;;1485445;79;1222;-65
2022/09/10 11:38:47;;;;;;;;;;;24.30;44.30;;;;;;1482939;78;711;-65
2022/09/10 11:41:07;;;;;;;;;;;24.30;44.40;;;;;;1503265;78;694;-65
2022/09/10 11:43:13;;;;;;;;;;;24.40;44.30;;;;;;1499209;78;728;-66
2022/09/10 11:45:23;;;;;;;;;;;24.30;44.30;;;;;;1500015;77;765;-69
2022/09/10 11:47:27;;;;;;;;;;;24.30;44.40;;;;;;1498269;77;1657;-65
2022/09/10 11:49:47;;;;;;;;;;;24.40;44.30;;;;;;1502417;77;1953;-65
2022/09/10 11:51:49;;;;;;;;;;;24.30;44.30;;;;;;1500849;78;729;-65
2022/09/10 11:53:51;;;;;;;;;;;24.30;44.30;;;;;;1502691;78;745;-65
2022/09/10 11:56:11;;;;;;;;;;;24.30;44.30;;;;;;1498606;78;746;-65
2022/09/10 11:58:14;;;;;;;;;;;24.30;44.20;;;;;;1500834;78;681;-65
2022/09/10 12:00:19;;;;;;;;;;;24.40;44.20;;;;;;1486141;78;1451;-65
2022/09/10 12:02:26;;;;;;;;;;;24.30;44.20;;;;;;1476271;79;796;-63
2022/09/10 12:04:39;;;;;;;;;;;24.30;44.20;;;;;;1471953;79;1625;-66
2022/09/10 12:06:42;;;;;;;;;;;24.40;44.20;;;;;;1475441;78;1168;-65
2022/09/10 12:08:54;;;;;;;;;;;24.40;44.20;;;;;;1472647;79;1934;-67
2022/09/10 12:11:00;;;;;;;;;;;24.30;44.20;;;;;;1480503;79;710;-66
2022/09/10 12:13:02;;;;;;;;;;;24.30;44.20;;;;;;1500485;78;686;-66
2022/09/10 12:15:07;;;;;;;;;;;24.30;44.20;;;;;;1476679;78;1088;-66
2022/09/10 12:17:16;;;;;;;;;;;24.30;44.10;;;;;;1523162;76;1609;-65
2022/09/10 12:19:32;;;;;;;;;;;24.30;44.10;;;;;;1530122;76;743;-65
2022/09/10 12:21:35;;;;;;;;;;;24.30;44.10;;;;;;1544836;76;1494;-66